Time;durP1;ratioP1;P1;durP2;ratioP2;P2;SDS_P1;SDS_P2;PMS_P1;PMS_P2;Temp;Humidity;BMP_temperature;BMP_pressure;BME280_temperature;BME280_humidity;BME280_pressure;Samples;Min_cycle;Max_cycle;Signal;HPM_P1;HPM_P2
2024/03/21 00:02:17;;;;;;;0.90;0.70;;;11.40;1.00;;;;;;5120255;27;20880;-60
2024/03/21 00:04:43;;;;;;;1.20;0.70;;;11.40;1.00;;;;;;5120755;27;20502;-60
2024/03/21 00:07:11;;;;;;;1.77;0.90;;;11.50;1.00;;;;;;5119222;27;21000;-60
2024/03/21 00:09:39;;;;;;;1.13;0.50;;;11.40;1.00;;;;;;5131116;27;20611;-60
2024/03/21 00:12:06;;;;;;;1.10;0.60;;;11.30;1.00;;;;;;5128784;27;20492;-61
2024/03/21 00:14:33;;;;;;;1.20;0.80;;;11.30;1.00;;;;;;5137501;27;20742;-60
2024/03/21 00:17:00;;;;;;;1.00;0.63;;;11.30;99.90;;;;;;5138060;27;20500;-60
2024/03/21 00:19:26;;;;;;;1.13;0.60;;;11.20;99.90;;;;;;5137391;27;20536;-60
2024/03/21 00:21:53;;;;;;;1.10;0.67;;;11.20;99.90;;;;;;5137847;27;20455;-60
2024/03/21 00:24:20;;;;;;;2.50;0.60;;;11.20;99.90;;;;;;5137469;27;20452;-60
2024/03/21 00:26:49;;;;;;;2.03;0.53;;;11.20;99.90;;;;;;5138414;27;20504;-60
2024/03/21 00:29:15;;;;;;;1.03;0.63;;;11.20;99.90;;;;;;5138008;28;20500;-60
2024/03/21 00:31:42;;;;;;;1.00;0.60;;;11.10;99.90;;;;;;5137722;28;20443;-60
2024/03/21 00:34:08;;;;;;;1.60;0.77;;;11.10;99.90;;;;;;5138185;28;20444;-60
2024/03/21 00:36:41;;;;;;;0.70;0.50;;;11.00;99.90;;;;;;5138494;28;20857;-60
2024/03/21 00:39:09;;;;;;;3.00;0.73;;;11.00;99.90;;;;;;5138212;27;20536;-60
2024/03/21 00:41:36;;;;;;;1.67;0.77;;;11.00;99.90;;;;;;5138528;28;20460;-60
2024/03/21 00:44:07;;;;;;;1.00;0.70;;;11.00;1.00;;;;;;5137996;28;20460;-60
2024/03/21 00:46:34;;;;;;;1.17;0.70;;;11.00;1.00;;;;;;5138805;28;20778;-60
2024/03/21 00:49:00;;;;;;;0.80;0.50;;;11.00;1.00;;;;;;5138200;27;20524;-60
2024/03/21 00:51:27;;;;;;;1.33;0.60;;;11.00;1.00;;;;;;5138953;27;20739;-61
2024/03/21 00:53:53;;;;;;;1.00;0.60;;;10.90;1.00;;;;;;5138438;28;20455;-61
2024/03/21 00:56:20;;;;;;;1.80;0.67;;;10.90;1.00;;;;;;5138104;27;20467;-60
2024/03/21 00:58:46;;;;;;;1.50;0.70;;;10.90;1.00;;;;;;5138068;28;20490;-60
2024/03/21 01:01:14;;;;;;;1.30;0.70;;;10.90;1.00;;;;;;5137813;28;20444;-60
2024/03/21 01:03:41;;;;;;;1.07;0.70;;;10.90;1.00;;;;;;5137339;28;20483;-60
2024/03/21 01:06:08;;;;;;;1.13;0.63;;;10.90;1.00;;;;;;5137955;28;20945;-60
2024/03/21 01:08:34;;;;;;;1.47;0.80;;;10.90;1.00;;;;;;5137917;28;20528;-60
2024/03/21 01:11:01;;;;;;;1.47;0.70;;;10.90;1.00;;;;;;5137275;28;20455;-60
2024/03/21 01:13:27;;;;;;;5.40;0.80;;;10.90;1.00;;;;;;5137262;28;20461;-60
2024/03/21 01:15:54;;;;;;;1.10;0.53;;;10.90;1.00;;;;;;5137328;28;20451;-60
2024/03/21 01:18:29;;;;;;;1.23;0.70;;;10.90;1.00;;;;;;5137423;28;20472;-60
2024/03/21 01:20:56;;;;;;;1.37;0.90;;;10.90;1.00;;;;;;5138110;28;20825;-60
2024/03/21 01:23:22;;;;;;;1.80;0.60;;;10.80;1.00;;;;;;5139415;27;20532;-60
2024/03/21 01:25:49;;;;;;;1.33;0.63;;;10.80;1.00;;;;;;5140228;27;20436;-59
2024/03/21 01:28:15;;;;;;;3.00;0.70;;;10.80;1.00;;;;;;5140686;27;20571;-60
2024/03/21 01:30:42;;;;;;;1.30;0.70;;;10.80;1.00;;;;;;5141485;27;20811;-61
2024/03/21 01:33:08;;;;;;;1.50;0.70;;;10.80;1.00;;;;;;5140939;27;20463;-60
2024/03/21 01:35:36;;;;;;;1.70;0.70;;;10.80;1.00;;;;;;5141839;27;20884;-60
2024/03/21 01:38:04;;;;;;;1.23;0.57;;;10.80;1.00;;;;;;5141299;27;20436;-60
2024/03/21 01:40:31;;;;;;;1.73;0.60;;;10.80;1.00;;;;;;5141994;27;20729;-60
2024/03/21 01:42:57;;;;;;;0.97;0.53;;;10.80;1.00;;;;;;5141324;27;20857;-60
2024/03/21 01:45:24;;;;;;;0.80;0.60;;;10.80;1.00;;;;;;5141735;27;20508;-60
2024/03/21 01:47:50;;;;;;;0.77;0.50;;;10.80;1.00;;;;;;5141098;27;20804;-60
2024/03/21 01:50:17;;;;;;;1.73;0.60;;;10.80;1.00;;;;;;5141618;27;20461;-60
2024/03/21 01:52:44;;;;;;;2.90;0.63;;;10.80;1.00;;;;;;5141030;27;20444;-60
2024/03/21 01:55:14;;;;;;;2.30;0.70;;;10.80;1.00;;;;;;5140589;27;20724;-60
2024/03/21 01:57:41;;;;;;;1.27;0.70;;;10.80;1.00;;;;;;5141537;27;20466;-60
2024/03/21 02:00:09;;;;;;;1.53;0.60;;;10.80;1.00;;;;;;5140974;27;20471;-60
2024/03/21 02:02:35;;;;;;;1.40;0.60;;;10.70;1.00;;;;;;5140153;27;20459;-60
2024/03/21 02:05:02;;;;;;;0.97;0.60;;;10.70;1.00;;;;;;5139412;27;20443;-60
2024/03/21 02:07:30;;;;;;;1.70;0.70;;;10.80;1.00;;;;;;5140567;27;20447;-60
2024/03/21 02:09:58;;;;;;;0.90;0.60;;;10.80;1.00;;;;;;5139689;27;20951;-61
2024/03/21 02:12:42;;;;;;;1.23;0.70;;;10.80;1.00;;;;;;5132651;27;20444;-60
2024/03/21 02:15:11;;;;;;;1.30;0.50;;;10.80;1.00;;;;;;5137465;27;20470;-60
2024/03/21 02:17:38;;;;;;;1.07;0.60;;;10.80;1.00;;;;;;5137970;27;20881;-60
2024/03/21 02:20:06;;;;;;;1.07;0.60;;;10.80;1.00;;;;;;5139057;27;20483;-59
2024/03/21 02:22:36;;;;;;;1.10;0.60;;;10.80;1.00;;;;;;5139085;27;20534;-61
2024/03/21 02:25:04;;;;;;;0.70;0.50;;;10.90;1.00;;;;;;5139143;27;20463;-59
2024/03/21 02:27:32;;;;;;;0.97;0.57;;;10.90;1.00;;;;;;5139553;27;20452;-60
2024/03/21 02:29:59;;;;;;;3.07;0.70;;;10.80;1.00;;;;;;5122383;27;20452;-60
2024/03/21 02:32:25;;;;;;;1.20;0.60;;;10.80;1.00;;;;;;5117663;27;20634;-60
2024/03/21 02:34:52;;;;;;;1.20;0.60;;;10.90;1.00;;;;;;5117662;28;20444;-60
2024/03/21 02:37:19;;;;;;;0.87;0.50;;;10.90;1.00;;;;;;5118140;28;20569;-60
2024/03/21 02:39:50;;;;;;;1.10;0.70;;;11.00;1.00;;;;;;5118478;28;20990;-60
2024/03/21 02:42:16;;;;;;;0.90;0.50;;;11.00;1.00;;;;;;5119889;28;20448;-60
2024/03/21 02:44:43;;;;;;;1.47;0.60;;;11.00;1.00;;;;;;5119631;28;20517;-60
2024/03/21 02:47:09;;;;;;;0.93;0.60;;;11.10;1.00;;;;;;5125681;27;20452;-60
2024/03/21 02:49:37;;;;;;;0.70;0.50;;;11.00;1.00;;;;;;5124975;27;20493;-60
2024/03/21 02:52:04;;;;;;;1.30;0.67;;;11.00;1.00;;;;;;5121226;27;20543;-60
2024/03/21 02:54:31;;;;;;;1.50;0.53;;;11.10;1.00;;;;;;5140442;27;20444;-60
2024/03/21 02:56:59;;;;;;;1.20;0.63;;;11.10;1.00;;;;;;5139537;27;20542;-60
2024/03/21 02:59:26;;;;;;;1.03;0.60;;;11.20;1.00;;;;;;5139067;27;20528;-60
2024/03/21 03:01:52;;;;;;;0.90;0.80;;;11.20;1.00;;;;;;5139585;27;20551;-60
2024/03/21 03:04:19;;;;;;;0.70;0.50;;;11.30;1.00;;;;;;5137057;27;20903;-60
2024/03/21 03:06:45;;;;;;;1.00;0.50;;;11.20;1.00;;;;;;5118745;28;20449;-60
2024/03/21 03:09:13;;;;;;;0.70;0.50;;;11.30;1.00;;;;;;5129127;27;20966;-60
2024/03/21 03:11:39;;;;;;;0.60;0.33;;;11.30;1.00;;;;;;5132857;27;20449;-60
2024/03/21 03:14:08;;;;;;;0.70;0.40;;;11.30;1.00;;;;;;5119606;28;20857;-60
2024/03/21 03:16:34;;;;;;;1.37;0.60;;;11.30;1.00;;;;;;5139027;27;20850;-59
2024/03/21 03:19:01;;;;;;;0.83;0.47;;;11.30;1.00;;;;;;5134415;27;20487;-59
2024/03/21 03:21:27;;;;;;;0.80;0.60;;;11.40;1.00;;;;;;5139316;27;20455;-60
2024/03/21 03:23:54;;;;;;;1.07;0.50;;;11.40;1.00;;;;;;5139717;27;20451;-60
2024/03/21 03:26:20;;;;;;;0.83;0.50;;;11.40;1.00;;;;;;5139383;27;20806;-61
2024/03/21 03:28:47;;;;;;;0.67;0.50;;;11.50;1.00;;;;;;5139525;27;20857;-61
2024/03/21 03:31:14;;;;;;;1.40;0.60;;;11.50;1.00;;;;;;5139783;27;20428;-61
2024/03/21 03:36:27;;;;;;;1.10;0.70;;;11.60;1.00;;;;;;5138777;27;20430;-61
2024/03/21 03:38:53;;;;;;;1.23;0.70;;;11.60;1.00;;;;;;5138531;27;20475;-62
2024/03/21 03:41:20;;;;;;;1.10;0.60;;;11.70;1.00;;;;;;5150624;27;20446;-60
2024/03/21 03:43:47;;;;;;;1.47;0.63;;;11.70;1.00;;;;;;5158556;27;20770;-61
2024/03/21 03:46:15;;;;;;;2.50;0.60;;;11.70;1.00;;;;;;5159723;27;20729;-60
2024/03/21 03:48:42;;;;;;;0.90;0.50;;;11.70;1.00;;;;;;5159544;27;20446;-60
2024/03/21 03:51:09;;;;;;;0.70;0.50;;;11.70;1.00;;;;;;5159644;27;20451;-60
2024/03/21 03:53:35;;;;;;;0.80;0.50;;;11.70;1.00;;;;;;5159777;27;20936;-60
2024/03/21 03:56:02;;;;;;;1.43;0.50;;;11.80;1.00;;;;;;5159709;27;20463;-59
2024/03/21 03:58:28;;;;;;;1.20;0.70;;;11.80;1.00;;;;;;5159409;27;20689;-59
2024/03/21 04:00:59;;;;;;;0.90;0.67;;;11.70;1.00;;;;;;5159931;27;20463;-60
2024/03/21 04:03:28;;;;;;;0.83;0.60;;;11.70;1.00;;;;;;5159584;27;20541;-59
2024/03/21 04:05:56;;;;;;;3.53;0.67;;;11.70;1.00;;;;;;5159254;27;20455;-60
2024/03/21 04:08:22;;;;;;;2.43;0.60;;;11.70;1.00;;;;;;5158927;27;21335;-60
2024/03/21 04:10:49;;;;;;;0.63;0.50;;;11.70;1.00;;;;;;5151252;27;20504;-60
2024/03/21 04:13:15;;;;;;;1.20;0.70;;;11.60;1.00;;;;;;5117843;28;20447;-60
2024/03/21 04:15:43;;;;;;;0.70;0.47;;;11.60;1.00;;;;;;5118011;28;20854;-60
2024/03/21 04:18:09;;;;;;;1.13;0.70;;;11.60;1.00;;;;;;5135576;27;20470;-60
2024/03/21 04:20:37;;;;;;;3.47;0.60;;;11.60;1.00;;;;;;5138570;27;20487;-60
2024/03/21 04:23:04;;;;;;;1.33;0.50;;;11.50;1.00;;;;;;5138415;27;20452;-60
2024/03/21 04:25:31;;;;;;;1.53;0.60;;;11.50;1.00;;;;;;5138159;27;20526;-60
2024/03/21 04:27:57;;;;;;;0.93;0.60;;;11.50;1.00;;;;;;5137931;27;20452;-60
2024/03/21 04:30:24;;;;;;;2.37;0.77;;;11.50;1.00;;;;;;5137027;28;20451;-60
2024/03/21 04:32:50;;;;;;;0.97;0.70;;;11.40;1.00;;;;;;5136756;28;20467;-61
2024/03/21 04:35:17;;;;;;;1.50;0.73;;;11.40;1.00;;;;;;5136985;28;20765;-61
2024/03/21 04:37:47;;;;;;;1.33;0.70;;;11.40;1.00;;;;;;5135661;28;20443;-61
2024/03/21 04:40:14;;;;;;;1.47;0.70;;;11.30;1.00;;;;;;5136732;28;20480;-61
2024/03/21 04:42:41;;;;;;;2.03;0.73;;;11.30;1.00;;;;;;5137381;28;20523;-61
2024/03/21 04:45:08;;;;;;;1.10;0.70;;;11.30;1.00;;;;;;5137259;28;20479;-61
2024/03/21 04:47:35;;;;;;;3.77;0.70;;;11.30;1.00;;;;;;5136338;28;20455;-61
2024/03/21 04:50:02;;;;;;;1.63;0.70;;;11.30;1.00;;;;;;5137627;28;20936;-61
2024/03/21 04:52:28;;;;;;;0.80;0.53;;;11.30;1.00;;;;;;5137637;28;20451;-61
2024/03/21 04:54:56;;;;;;;1.40;0.90;;;11.30;1.00;;;;;;5137583;28;20458;-61
2024/03/21 04:57:23;;;;;;;3.10;0.67;;;11.20;1.00;;;;;;5139024;27;20457;-62
2024/03/21 04:59:50;;;;;;;0.97;0.90;;;11.20;1.00;;;;;;5142367;27;20486;-62
2024/03/21 05:02:16;;;;;;;0.83;0.60;;;11.30;1.00;;;;;;5142254;27;20447;-61
2024/03/21 05:04:43;;;;;;;2.60;0.80;;;11.30;1.00;;;;;;5142100;27;20440;-61
2024/03/21 05:07:09;;;;;;;1.50;0.77;;;11.30;1.00;;;;;;5141996;27;20447;-61
2024/03/21 05:09:36;;;;;;;2.50;0.60;;;11.30;1.00;;;;;;5141883;27;20479;-59
2024/03/21 05:12:03;;;;;;;1.00;0.70;;;11.30;1.00;;;;;;5139248;27;20455;-61
2024/03/21 05:14:33;;;;;;;1.10;0.70;;;11.30;1.00;;;;;;5140102;27;20487;-61
2024/03/21 05:16:59;;;;;;;0.90;0.60;;;11.30;1.00;;;;;;5139121;27;21012;-61
2024/03/21 05:19:26;;;;;;;1.00;0.50;;;11.30;1.00;;;;;;5139088;27;20467;-60
2024/03/21 05:21:52;;;;;;;1.43;0.70;;;11.30;1.00;;;;;;5139266;27;20448;-61
2024/03/21 05:24:20;;;;;;;1.40;0.70;;;11.40;1.00;;;;;;5139444;27;20447;-61
2024/03/21 05:26:46;;;;;;;0.70;0.53;;;11.50;1.00;;;;;;5139658;27;20447;-60
2024/03/21 05:29:14;;;;;;;0.77;0.40;;;11.50;1.00;;;;;;5140801;27;20868;-59
2024/03/21 05:31:40;;;;;;;1.70;0.67;;;11.60;1.00;;;;;;5139060;27;20447;-58
2024/03/21 05:34:09;;;;;;;2.23;0.77;;;11.50;1.00;;;;;;5139867;27;20886;-60
2024/03/21 05:36:35;;;;;;;1.50;0.60;;;11.50;1.00;;;;;;5140858;27;20475;-59
2024/03/21 05:39:03;;;;;;;1.10;0.70;;;11.50;1.00;;;;;;5141083;27;20915;-59
2024/03/21 05:41:29;;;;;;;1.70;0.80;;;11.50;1.00;;;;;;5140861;27;20473;-59
2024/03/21 05:43:57;;;;;;;1.13;0.70;;;11.50;1.00;;;;;;5140861;27;20526;-60
2024/03/21 05:46:26;;;;;;;1.40;0.70;;;11.50;1.00;;;;;;5140896;27;20436;-60
2024/03/21 05:48:55;;;;;;;1.53;1.43;;;11.50;1.00;;;;;;5139829;27;20534;-59
2024/03/21 05:51:21;;;;;;;1.00;0.70;;;11.50;1.00;;;;;;5140877;27;20542;-59
2024/03/21 05:53:48;;;;;;;1.03;0.70;;;11.50;1.00;;;;;;5141424;27;20471;-60
2024/03/21 05:56:15;;;;;;;1.63;0.80;;;11.50;1.00;;;;;;5140435;27;20459;-60
2024/03/21 05:58:43;;;;;;;1.70;0.90;;;11.50;1.00;;;;;;5139620;27;20900;-60
2024/03/21 06:01:22;;;;;;;2.30;0.90;;;11.50;1.00;;;;;;5134941;27;20418;-61
2024/03/21 06:03:51;;;;;;;3.53;1.00;;;11.50;1.00;;;;;;5135229;27;20452;-61
2024/03/21 06:06:17;;;;;;;1.58;0.90;;;11.40;1.00;;;;;;5138648;27;20436;-61
2024/03/21 06:08:44;;;;;;;1.58;0.88;;;11.50;1.00;;;;;;5137070;27;20708;-61
2024/03/21 06:11:10;;;;;;;1.60;0.90;;;11.60;1.00;;;;;;5135417;27;20538;-61
2024/03/21 06:13:38;;;;;;;1.50;0.80;;;11.60;1.00;;;;;;5125307;27;20494;-60
2024/03/21 06:16:04;;;;;;;1.25;0.90;;;11.60;1.00;;;;;;5137851;27;21028;-60
2024/03/21 06:18:31;;;;;;;3.35;0.90;;;11.70;1.00;;;;;;5134248;27;20505;-60
2024/03/21 06:20:59;;;;;;;2.08;0.80;;;11.70;1.00;;;;;;5119325;27;20450;-61
2024/03/21 06:23:26;;;;;;;2.77;0.90;;;11.70;1.00;;;;;;5134753;27;20422;-61
2024/03/21 06:25:52;;;;;;;3.70;0.97;;;11.70;1.00;;;;;;5136750;27;20896;-61
2024/03/21 06:28:19;;;;;;;2.70;1.00;;;11.70;1.00;;;;;;5137839;27;20421;-61
2024/03/21 06:30:45;;;;;;;1.98;0.90;;;11.70;1.00;;;;;;5136691;27;20471;-61
2024/03/21 06:33:12;;;;;;;1.47;1.00;;;11.80;1.00;;;;;;5137322;27;20414;-61
2024/03/21 06:35:41;;;;;;;3.20;1.10;;;11.80;1.00;;;;;;5137028;27;20434;-61
2024/03/21 06:38:10;;;;;;;3.10;1.00;;;11.90;1.00;;;;;;5137537;27;20484;-61
2024/03/21 06:40:36;;;;;;;2.35;1.30;;;11.90;1.00;;;;;;5137885;27;20692;-62
2024/03/21 06:43:03;;;;;;;1.80;1.13;;;11.90;1.00;;;;;;5138465;27;20523;-62
2024/03/21 06:45:29;;;;;;;1.53;0.93;;;12.00;1.00;;;;;;5138086;27;20422;-62
2024/03/21 06:47:57;;;;;;;2.43;1.00;;;11.90;1.00;;;;;;5137217;27;20483;-61
2024/03/21 06:50:23;;;;;;;3.83;1.17;;;12.00;1.00;;;;;;5137629;27;20419;-62
2024/03/21 06:52:51;;;;;;;2.55;1.10;;;12.00;1.00;;;;;;5138689;27;20426;-61
2024/03/21 06:55:19;;;;;;;3.15;1.00;;;12.10;1.00;;;;;;5137617;27;20460;-62
2024/03/21 06:57:50;;;;;;;2.80;1.25;;;12.00;1.00;;;;;;5136298;27;20457;-61
2024/03/21 07:00:16;;;;;;;3.03;1.30;;;12.10;1.00;;;;;;5137872;27;20430;-62
2024/03/21 07:02:44;;;;;;;2.30;1.15;;;12.10;1.00;;;;;;5137847;27;20430;-61
2024/03/21 07:05:11;;;;;;;3.05;1.00;;;12.10;1.00;;;;;;5136631;27;20802;-61
2024/03/21 07:07:38;;;;;;;2.50;1.10;;;12.00;1.00;;;;;;5137099;27;20422;-62
2024/03/21 07:10:05;;;;;;;3.50;1.30;;;12.00;1.00;;;;;;5132289;27;20426;-60
2024/03/21 07:12:35;;;;;;;3.30;1.20;;;12.00;1.00;;;;;;5119028;27;20432;-59
2024/03/21 07:15:02;;;;;;;2.63;1.20;;;12.10;1.00;;;;;;5125074;27;20445;-60
2024/03/21 07:17:29;;;;;;;1.90;1.10;;;12.30;1.00;;;;;;5137302;27;20414;-59
2024/03/21 07:19:55;;;;;;;3.70;1.30;;;12.40;1.00;;;;;;5133814;27;20832;-59
2024/03/21 07:22:22;;;;;;;1.63;1.00;;;12.40;1.00;;;;;;5134002;27;20419;-59
2024/03/21 07:24:48;;;;;;;2.08;1.20;;;12.40;1.00;;;;;;5117669;27;20914;-56
2024/03/21 07:27:16;;;;;;;2.13;1.10;;;12.50;1.00;;;;;;5136161;27;20422;-55
2024/03/21 07:29:44;;;;;;;2.70;1.10;;;12.50;1.00;;;;;;5129987;27;20435;-57
2024/03/21 07:32:11;;;;;;;1.70;1.10;;;12.50;1.00;;;;;;5126233;27;20717;-57
2024/03/21 07:34:37;;;;;;;2.67;1.10;;;12.60;1.00;;;;;;5114890;27;20461;-57
2024/03/21 07:37:04;;;;;;;2.15;1.00;;;12.60;1.00;;;;;;5115488;28;20680;-56
2024/03/21 07:39:31;;;;;;;1.95;1.10;;;12.70;1.00;;;;;;5115521;28;20432;-56
2024/03/21 07:41:58;;;;;;;2.92;1.20;;;12.80;99.90;;;;;;5116430;27;20821;-56
2024/03/21 07:44:25;;;;;;;2.30;1.40;;;12.80;99.90;;;;;;5119363;27;21028;-55
2024/03/21 07:46:53;;;;;;;2.37;1.13;;;12.90;99.90;;;;;;5123583;27;20497;-56
2024/03/21 07:49:19;;;;;;;2.00;1.20;;;12.90;1.00;;;;;;5119545;27;20434;-57
2024/03/21 07:51:47;;;;;;;3.42;1.40;;;13.00;99.90;;;;;;5127386;27;20951;-57
2024/03/21 07:54:13;;;;;;;2.80;1.30;;;13.10;99.90;;;;;;5135824;27;20452;-57
2024/03/21 07:56:40;;;;;;;5.05;1.20;;;13.10;99.90;;;;;;5125912;27;20419;-57
2024/03/21 07:59:06;;;;;;;2.13;1.20;;;13.10;91.00;;;;;;5125434;27;20442;-56
2024/03/21 08:01:34;;;;;;;3.22;1.88;;;13.20;99.90;;;;;;5123611;27;20415;-58
2024/03/21 08:04:03;;;;;;;2.83;1.70;;;13.30;1.00;;;;;;5132352;27;20759;-58
2024/03/21 08:06:30;;;;;;;3.38;1.60;;;13.40;1.00;;;;;;5129500;27;20436;-58
2024/03/21 08:08:56;;;;;;;3.03;1.52;;;13.40;1.00;;;;;;5127852;27;20841;-58
2024/03/21 08:11:24;;;;;;;2.00;1.30;;;13.30;1.00;;;;;;5114975;28;20433;-58
2024/03/21 08:13:50;;;;;;;3.47;1.30;;;13.30;1.00;;;;;;5115545;28;20416;-57
2024/03/21 08:16:17;;;;;;;3.58;1.70;;;13.30;1.00;;;;;;5113368;28;20485;-58
2024/03/21 08:18:42;;;;;;;3.40;1.30;;;13.50;1.00;;;;;;5111451;28;20722;-58
2024/03/21 08:21:11;;;;;;;3.92;1.40;;;13.60;99.90;;;;;;5113139;28;20436;-58
2024/03/21 08:23:37;;;;;;;1.88;1.40;;;13.60;99.90;;;;;;5112896;28;20508;-58
2024/03/21 08:26:05;;;;;;;1.60;1.20;;;13.70;1.00;;;;;;5099548;27;20468;-58
2024/03/21 08:28:31;;;;;;;2.35;1.40;;;14.00;58.90;;;;;;5094557;28;20753;-59
2024/03/21 08:30:58;;;;;;;3.10;1.60;;;14.20;69.60;;;;;;5111265;28;20424;-58
2024/03/21 08:33:24;;;;;;;2.38;1.30;;;14.30;99.90;;;;;;5114546;28;20427;-58
2024/03/21 08:35:51;;;;;;;3.50;1.60;;;14.20;99.90;;;;;;5110917;28;20428;-59
2024/03/21 08:38:18;;;;;;;4.30;1.50;;;14.10;1.00;;;;;;5114830;28;20424;-59
2024/03/21 08:40:52;;;;;;;2.30;1.42;;;14.10;1.00;;;;;;5111204;28;20435;-59
2024/03/21 08:43:19;;;;;;;4.90;1.50;;;14.10;1.00;;;;;;5111460;28;20423;-58
2024/03/21 08:45:47;;;;;;;2.67;1.20;;;14.30;1.00;;;;;;5108668;28;20429;-58
2024/03/21 08:48:14;;;;;;;2.45;1.17;;;14.50;99.90;;;;;;5095779;28;20517;-58
2024/03/21 08:50:44;;;;;;;3.30;1.40;;;14.70;1.00;;;;;;5112525;28;20493;-59
2024/03/21 08:53:10;;;;;;;3.65;1.27;;;14.80;1.00;;;;;;5115172;28;20877;-60
2024/03/21 08:55:39;;;;;;;3.20;1.10;;;15.00;99.90;;;;;;5106781;28;20432;-59
2024/03/21 08:58:05;;;;;;;1.40;0.90;;;15.20;99.90;;;;;;5113371;28;20436;-59
2024/03/21 09:00:32;;;;;;;1.43;0.90;;;15.20;99.90;;;;;;5106527;28;20431;-58
2024/03/21 09:02:58;;;;;;;1.30;0.80;;;15.30;99.90;;;;;;5111536;28;20790;-58
2024/03/21 09:05:26;;;;;;;1.80;0.70;;;15.60;1.00;;;;;;5111376;28;20434;-58
2024/03/21 09:07:52;;;;;;;1.20;0.80;;;15.70;1.00;;;;;;5112165;28;20689;-58
2024/03/21 09:10:19;;;;;;;1.27;0.77;;;15.60;1.00;;;;;;5118949;28;20483;-58
2024/03/21 09:12:46;;;;;;;1.00;0.70;;;15.80;1.00;;;;;;5115535;28;20427;-58
2024/03/21 09:15:14;;;;;;;2.10;0.80;;;15.90;1.00;;;;;;5119008;28;20437;-58
2024/03/21 09:17:41;;;;;;;1.20;0.70;;;16.00;99.90;;;;;;5128611;28;20521;-58
2024/03/21 09:20:09;;;;;;;2.20;0.70;;;16.10;99.90;;;;;;5131624;28;20430;-58
2024/03/21 09:22:35;;;;;;;1.05;0.70;;;16.10;99.90;;;;;;5132949;28;20471;-58
2024/03/21 09:25:02;;;;;;;1.20;0.60;;;16.30;1.00;;;;;;5121904;28;20426;-58
2024/03/21 09:27:28;;;;;;;1.53;0.70;;;16.30;1.00;;;;;;5130572;28;20435;-58
2024/03/21 09:29:57;;;;;;;1.10;0.80;;;16.30;1.00;;;;;;5113967;28;20924;-58
2024/03/21 09:32:24;;;;;;;1.40;0.73;;;16.30;1.00;;;;;;5113719;28;20428;-58
2024/03/21 09:34:51;;;;;;;1.13;0.70;;;16.50;1.00;;;;;;5122593;28;20479;-59
2024/03/21 09:37:20;;;;;;;1.30;0.70;;;16.60;1.00;;;;;;5133506;28;20413;-58
2024/03/21 09:39:47;;;;;;;0.95;0.77;;;16.60;1.00;;;;;;5125937;28;20431;-58
2024/03/21 09:42:16;;;;;;;3.30;0.90;;;16.90;1.00;;;;;;5128008;28;20440;-59
2024/03/21 09:44:48;;;;;;;1.88;0.80;;;17.00;1.00;;;;;;5121351;27;20438;-58
2024/03/21 09:47:19;;;;;;;1.90;0.70;;;16.80;1.20;;;;;;5123655;27;20754;-59
2024/03/21 09:49:46;;;;;;;1.00;0.70;;;16.80;1.00;;;;;;5136819;27;20468;-59
2024/03/21 09:52:13;;;;;;;2.30;0.80;;;16.90;1.00;;;;;;5133114;27;20727;-59
2024/03/21 09:54:40;;;;;;;1.20;0.70;;;16.90;52.70;;;;;;5131305;27;20456;-59
2024/03/21 09:57:11;;;;;;;1.40;0.80;;;17.00;1.00;;;;;;5127069;27;20433;-59
2024/03/21 09:59:38;;;;;;;1.00;0.70;;;17.00;99.90;;;;;;5121763;27;20414;-58
2024/03/21 10:02:07;;;;;;;1.50;0.70;;;17.00;99.90;;;;;;5120700;27;20910;-59
2024/03/21 10:04:43;;;;;;;1.20;0.80;;;16.90;99.90;;;;;;5117565;27;20447;-59
2024/03/21 10:07:18;;;;;;;1.30;0.70;;;16.80;99.90;;;;;;5118216;28;20473;-58
2024/03/21 10:09:53;;;;;;;1.53;0.80;;;16.60;99.90;;;;;;5131989;27;21008;-58
2024/03/21 10:12:19;;;;;;;1.80;0.70;;;16.30;99.90;;;;;;5118161;27;20420;-58
2024/03/21 10:14:46;;;;;;;1.10;0.70;;;16.30;99.90;;;;;;5133803;27;20426;-58
2024/03/21 10:17:12;;;;;;;2.10;0.80;;;16.20;99.90;;;;;;5126443;27;20907;-58
2024/03/21 10:19:39;;;;;;;2.20;0.80;;;16.20;1.00;;;;;;5135562;27;20423;-58
2024/03/21 10:22:14;;;;;;;1.90;0.80;;;16.40;1.00;;;;;;5135004;27;20508;-58
2024/03/21 10:24:41;;;;;;;1.30;0.90;;;16.60;99.90;;;;;;5132053;27;20525;-58
2024/03/21 10:27:13;;;;;;;2.40;0.90;;;16.80;99.90;;;;;;5136184;27;20434;-57
2024/03/21 10:29:40;;;;;;;2.33;0.90;;;16.90;99.90;;;;;;5131984;27;20513;-58
2024/03/21 10:32:16;;;;;;;2.00;1.07;;;17.00;99.90;;;;;;5137063;27;20429;-58
2024/03/21 10:34:48;;;;;;;3.00;1.10;;;17.00;99.90;;;;;;5133631;27;20420;-58
2024/03/21 10:37:15;;;;;;;1.60;1.00;;;16.80;99.90;;;;;;5134977;27;20734;-58
2024/03/21 10:39:42;;;;;;;2.10;1.30;;;17.00;99.90;;;;;;5127771;27;20434;-58
2024/03/21 10:42:17;;;;;;;4.35;1.30;;;16.80;99.90;;;;;;5133361;27;20438;-62
2024/03/21 10:44:44;;;;;;;2.67;1.20;;;16.90;99.90;;;;;;5133878;27;20525;-58
2024/03/21 10:47:11;;;;;;;2.83;1.40;;;16.80;99.90;;;;;;5134615;27;20430;-58
2024/03/21 10:49:38;;;;;;;2.40;1.60;;;16.70;99.90;;;;;;5137110;27;20493;-59
2024/03/21 10:52:05;;;;;;;2.92;1.60;;;16.70;99.90;;;;;;5135945;27;20431;-59
2024/03/21 10:54:39;;;;;;;2.10;1.30;;;16.70;99.90;;;;;;5137089;27;20427;-60
2024/03/21 10:57:15;;;;;;;4.32;1.42;;;16.70;99.90;;;;;;5137308;27;20433;-59
2024/03/21 10:59:42;;;;;;;2.70;1.50;;;16.80;99.90;;;;;;5132742;27;20437;-60
2024/03/21 11:02:13;;;;;;;1.70;1.20;;;16.60;99.90;;;;;;5133882;27;20426;-60
2024/03/21 11:04:42;;;;;;;2.28;1.20;;;16.60;99.90;;;;;;5130993;27;20460;-60
2024/03/21 11:07:13;;;;;;;2.38;1.40;;;16.60;99.90;;;;;;5133361;27;20418;-60
2024/03/21 11:09:44;;;;;;;2.17;1.17;;;17.10;99.90;;;;;;5133007;27;21016;-60
2024/03/21 11:12:11;;;;;;;3.10;1.40;;;17.50;99.90;;;;;;5128697;27;20452;-60
2024/03/21 11:14:38;;;;;;;3.00;1.10;;;17.50;99.90;;;;;;5133249;27;20426;-62
2024/03/21 11:17:05;;;;;;;2.75;1.20;;;17.40;99.90;;;;;;5136245;27;20832;-60
2024/03/21 11:19:32;;;;;;;3.27;1.10;;;17.50;99.90;;;;;;5134079;27;21146;-60
2024/03/21 11:21:58;;;;;;;2.10;1.10;;;17.80;1.00;;;;;;5135873;27;20487;-61
2024/03/21 11:24:26;;;;;;;1.77;1.10;;;18.00;99.90;;;;;;5133343;27;20890;-60
2024/03/21 11:27:05;;;;;;;1.83;1.40;;;18.20;99.90;;;;;;5135836;27;20414;-61
2024/03/21 11:29:32;;;;;;;2.40;1.40;;;18.00;99.90;;;;;;5131892;27;20432;-60
2024/03/21 11:31:59;;;;;;;2.80;1.40;;;17.60;99.90;;;;;;5134799;27;20426;-64
2024/03/21 11:34:28;;;;;;;4.57;2.20;;;17.80;99.90;;;;;;5134505;27;20426;-60
2024/03/21 11:36:54;;;;;;;2.45;1.50;;;18.30;99.90;;;;;;5135147;27;20442;-61
2024/03/21 11:39:21;;;;;;;3.50;1.50;;;18.10;99.90;;;;;;5132863;27;20809;-61
2024/03/21 11:41:48;;;;;;;3.75;1.40;;;18.10;99.90;;;;;;5136264;27;20441;-61
2024/03/21 11:44:17;;;;;;;1.80;1.50;;;18.00;99.90;;;;;;5133155;27;20434;-60
2024/03/21 11:46:43;;;;;;;2.70;1.67;;;18.00;99.90;;;;;;5134666;27;20418;-60
2024/03/21 11:49:12;;;;;;;3.67;2.40;;;18.20;99.90;;;;;;5131534;27;20769;-60
2024/03/21 11:51:39;;;;;;;4.50;2.28;;;18.70;99.90;;;;;;5132386;27;20434;-60
2024/03/21 11:54:07;;;;;;;3.53;2.13;;;18.90;99.90;;;;;;5130253;27;20426;-60
2024/03/21 11:56:35;;;;;;;5.38;2.28;;;19.00;99.90;;;;;;5129468;27;20435;-60
2024/03/21 11:59:03;;;;;;;3.10;1.90;;;19.00;99.90;;;;;;5129624;27;21011;-58
2024/03/21 12:01:31;;;;;;;2.78;1.52;;;18.70;99.90;;;;;;5132678;27;20426;-60
2024/03/21 12:03:58;;;;;;;2.40;1.60;;;18.60;99.90;;;;;;5120523;27;20462;-60
2024/03/21 12:06:24;;;;;;;2.53;2.20;;;18.60;99.90;;;;;;5134606;27;20430;-61
2024/03/21 12:08:52;;;;;;;3.43;2.10;;;18.50;99.90;;;;;;5134486;27;20477;-61
2024/03/21 12:11:20;;;;;;;3.10;2.20;;;18.40;99.90;;;;;;5135636;27;20410;-60
2024/03/21 12:13:47;;;;;;;2.88;1.83;;;18.40;99.90;;;;;;5134336;27;20406;-60
2024/03/21 12:16:15;;;;;;;2.97;1.97;;;18.10;99.90;;;;;;5135480;27;20418;-59
2024/03/21 12:18:44;;;;;;;3.20;2.00;;;18.00;99.90;;;;;;5136379;27;20449;-60
2024/03/21 12:21:15;;;;;;;5.28;2.58;;;18.10;99.90;;;;;;5135990;27;20502;-60
2024/03/21 12:23:42;;;;;;;2.70;2.28;;;18.00;99.90;;;;;;5135762;27;20491;-60
2024/03/21 12:26:10;;;;;;;2.30;1.52;;;18.10;99.90;;;;;;5134410;27;20431;-60
2024/03/21 12:28:37;;;;;;;3.40;2.08;;;18.50;99.90;;;;;;5134777;27;20417;-60
2024/03/21 12:31:03;;;;;;;2.30;2.10;;;18.80;99.90;;;;;;5134256;27;20433;-61
2024/03/21 12:33:30;;;;;;;3.70;2.40;;;18.70;99.90;;;;;;5124507;28;20527;-60
2024/03/21 12:35:58;;;;;;;3.88;2.88;;;18.60;99.90;;;;;;5135599;28;20422;-60
2024/03/21 12:38:26;;;;;;;4.03;3.30;;;18.60;99.90;;;;;;5136386;28;20448;-60
2024/03/21 12:40:52;;;;;;;5.25;2.55;;;18.60;99.90;;;;;;5135324;28;20426;-60
2024/03/21 12:43:19;;;;;;;3.70;2.40;;;18.60;99.90;;;;;;5134884;28;20471;-60
2024/03/21 12:45:45;;;;;;;3.67;1.83;;;18.60;99.90;;;;;;5134655;28;20422;-60
2024/03/21 12:48:12;;;;;;;3.13;2.30;;;18.40;99.90;;;;;;5134452;28;20418;-61
2024/03/21 12:50:38;;;;;;;3.22;2.08;;;18.00;99.90;;;;;;5134169;28;20487;-61
2024/03/21 12:53:06;;;;;;;3.13;1.80;;;18.00;99.90;;;;;;5121243;28;20428;-61
2024/03/21 12:55:33;;;;;;;2.97;2.30;;;18.30;99.90;;;;;;5114372;28;20416;-60
2024/03/21 12:58:00;;;;;;;3.80;3.00;;;18.30;99.90;;;;;;5119434;28;20698;-61